createdAt,value
2018-12-02T00:00:28.299Z,5.07
2018-12-02T00:01:28.224Z,5.09
2018-12-02T00:02:28.136Z,5.12
2018-12-02T00:03:28.049Z,5.15
2018-12-02T00:04:27.962Z,5.12
2018-12-02T00:05:27.878Z,5.10
2018-12-02T00:06:27.787Z,5.24
2018-12-02T00:07:27.700Z,5.18
2018-12-02T00:08:27.613Z,5.15
2018-12-02T00:09:27.550Z,5.18
2018-12-02T00:10:27.453Z,5.20
2018-12-02T00:11:27.361Z,5.17
2018-12-02T00:12:27.277Z,5.18
2018-12-02T00:13:27.189Z,5.15
2018-12-02T00:14:27.101Z,5.12
2018-12-02T00:15:27.013Z,5.17
2018-12-02T00:16:26.956Z,5.17
2018-12-02T00:17:26.850Z,5.15
2018-12-02T00:18:26.763Z,5.22
2018-12-02T00:19:26.675Z,5.25
2018-12-02T00:20:26.590Z,5.25
2018-12-02T00:21:26.502Z,5.28
2018-12-02T00:22:26.426Z,5.24
2018-12-02T00:23:26.338Z,5.20
2018-12-02T00:24:26.251Z,5.21
2018-12-02T00:25:26.178Z,5.22
2018-12-02T00:26:26.078Z,5.18
2018-12-02T00:27:25.989Z,5.13
2018-12-02T00:28:25.902Z,5.18
2018-12-02T00:29:25.814Z,5.21
2018-12-02T00:30:25.739Z,5.24
2018-12-02T00:31:25.653Z,5.27
2018-12-02T00:32:25.564Z,5.22
2018-12-02T00:33:25.478Z,5.22
2018-12-02T00:34:25.390Z,5.27
2018-12-02T00:35:25.302Z,5.31
2018-12-02T00:36:25.214Z,5.38
2018-12-02T00:37:25.129Z,5.38
2018-12-02T00:38:25.053Z,5.43
2018-12-02T00:39:24.965Z,5.39
2018-12-02T00:40:24.879Z,5.35
2018-12-02T00:41:24.790Z,5.38
2018-12-02T00:42:24.704Z,5.31
2018-12-02T00:43:24.629Z,5.40
2018-12-02T00:44:24.529Z,5.38
2018-12-02T00:45:24.454Z,5.39
2018-12-02T00:46:24.366Z,5.42
2018-12-02T00:47:24.280Z,5.42
2018-12-02T00:48:24.191Z,5.40
2018-12-02T00:49:24.107Z,5.35
2018-12-02T00:50:24.018Z,5.30
2018-12-02T00:51:23.929Z,5.45
2018-12-02T00:52:23.855Z,5.40
2018-12-02T00:53:23.767Z,5.40
2018-12-02T00:54:23.680Z,5.43
2018-12-02T00:55:23.592Z,5.35
2018-12-02T00:56:24.198Z,5.40
2018-12-02T00:57:23.417Z,5.36
2018-12-02T00:58:23.331Z,5.31
2018-12-02T00:59:23.243Z,5.39
2018-12-02T01:00:23.167Z,5.39
2018-12-02T01:01:23.082Z,5.39
2018-12-02T01:02:22.993Z,5.38
2018-12-02T01:03:22.906Z,5.35
2018-12-02T01:04:22.818Z,5.42
2018-12-02T01:05:22.734Z,5.43
2018-12-02T01:06:22.656Z,5.40
2018-12-02T01:07:22.569Z,5.45
2018-12-02T01:08:22.491Z,5.49
2018-12-02T01:09:22.406Z,5.45
2018-12-02T01:10:22.307Z,5.42
2018-12-02T01:11:22.219Z,5.49
2018-12-02T01:12:22.143Z,5.56
2018-12-02T01:13:22.056Z,5.51
2018-12-02T01:14:21.969Z,5.54
2018-12-02T01:15:21.885Z,5.43
2018-12-02T01:16:21.795Z,5.48
2018-12-02T01:17:21.707Z,5.49
2018-12-02T01:18:21.619Z,5.49
2018-12-02T01:19:21.533Z,5.53
2018-12-02T01:20:21.458Z,5.56
2018-12-02T01:21:21.369Z,5.48
2018-12-02T01:22:21.284Z,5.42
2018-12-02T01:23:21.194Z,5.56
2018-12-02T01:24:21.109Z,5.39
2018-12-02T01:25:21.032Z,5.40
2018-12-02T01:26:20.945Z,5.46
2018-12-02T01:27:20.859Z,5.40
2018-12-02T01:28:20.770Z,5.45
2018-12-02T01:29:20.683Z,5.39
2018-12-02T01:30:20.596Z,5.43
2018-12-02T01:31:20.511Z,5.46
2018-12-02T01:32:20.434Z,5.45
2018-12-02T01:33:20.345Z,5.53
2018-12-02T01:34:20.259Z,5.42
2018-12-02T01:35:20.174Z,5.51
2018-12-02T01:36:20.085Z,5.53
2018-12-02T01:37:19.996Z,5.53
2018-12-02T01:38:19.909Z,5.45
2018-12-02T01:39:19.823Z,5.46
2018-12-02T01:40:19.749Z,5.48
2018-12-02T01:41:19.659Z,5.46
2018-12-02T01:42:19.584Z,5.46
2018-12-02T01:43:19.485Z,5.53
2018-12-02T01:44:19.399Z,5.53
2018-12-02T01:45:19.313Z,5.51
2018-12-02T01:46:19.234Z,5.54
2018-12-02T01:47:19.147Z,5.46
2018-12-02T01:48:19.060Z,5.56
2018-12-02T01:49:18.972Z,5.60
2018-12-02T01:50:18.888Z,5.63
2018-12-02T01:51:18.798Z,5.51
2018-12-02T01:52:18.723Z,5.61
2018-12-02T01:53:18.636Z,5.56
2018-12-02T01:54:18.548Z,5.58
2018-12-02T01:55:18.464Z,5.54
2018-12-02T01:56:18.373Z,5.57
2018-12-02T01:57:18.287Z,5.58
2018-12-02T01:58:18.211Z,5.54
2018-12-02T01:59:18.123Z,5.56
2018-12-02T02:00:18.037Z,5.57
2018-12-02T02:01:17.949Z,5.60
2018-12-02T02:02:17.873Z,5.71
2018-12-02T02:03:17.773Z,5.65
2018-12-02T02:04:17.688Z,5.64
2018-12-02T02:05:17.614Z,5.67
2018-12-02T02:06:17.524Z,5.56
2018-12-02T02:07:17.441Z,5.64
2018-12-02T02:08:17.351Z,5.64
2018-12-02T02:09:17.263Z,5.65
2018-12-02T02:10:17.176Z,5.61
2018-12-02T02:11:17.102Z,5.54
2018-12-02T02:12:17.015Z,5.56
2018-12-02T02:13:16.925Z,5.51
2018-12-02T02:14:16.841Z,5.61
2018-12-02T02:15:17.557Z,5.58
2018-12-02T02:16:16.710Z,5.58
2018-12-02T02:17:16.592Z,5.63
2018-12-02T02:18:16.500Z,5.68
2018-12-02T02:19:16.413Z,5.64
2018-12-02T02:20:16.325Z,5.67
2018-12-02T02:21:16.239Z,5.68
2018-12-02T02:22:16.152Z,5.67
2018-12-02T02:23:16.082Z,5.74
2018-12-02T02:24:15.992Z,5.76
2018-12-02T02:25:15.901Z,5.76
2018-12-02T02:26:15.816Z,5.79
2018-12-02T02:27:15.731Z,5.75
2018-12-02T02:28:15.640Z,5.72
2018-12-02T02:29:15.565Z,5.68
2018-12-02T02:30:15.479Z,5.76
2018-12-02T02:31:15.392Z,5.71
2018-12-02T02:32:15.306Z,5.76
2018-12-02T02:33:15.215Z,5.78
2018-12-02T02:34:15.128Z,5.75
2018-12-02T02:35:15.053Z,5.79
2018-12-02T02:36:14.965Z,5.81
2018-12-02T02:37:14.877Z,5.93
2018-12-02T02:38:14.794Z,5.93
2018-12-02T02:39:14.704Z,5.82
2018-12-02T02:40:14.616Z,5.79
2018-12-02T02:41:14.542Z,5.83
2018-12-02T02:42:14.453Z,5.78
2018-12-02T02:43:14.366Z,5.83
2018-12-02T02:44:14.280Z,5.83
2018-12-02T02:45:14.192Z,5.85
2018-12-02T02:46:14.106Z,5.83
2018-12-02T02:47:14.029Z,5.86
2018-12-02T02:48:13.942Z,5.86
2018-12-02T02:49:13.855Z,5.85
2018-12-02T02:50:13.767Z,5.99
2018-12-02T02:51:13.679Z,5.91
2018-12-02T02:52:13.605Z,5.99
2018-12-02T02:53:13.520Z,5.97
2018-12-02T02:54:13.446Z,5.90
2018-12-02T02:55:13.357Z,5.93
2018-12-02T02:56:13.255Z,6.01
2018-12-02T02:57:13.174Z,6.01
2018-12-02T02:58:13.093Z,6.03
2018-12-02T02:59:13.007Z,6.09
2018-12-02T03:00:12.928Z,5.94
2018-12-02T03:01:12.830Z,6.01
2018-12-02T03:02:12.743Z,6.11
2018-12-02T03:03:12.656Z,6.03
2018-12-02T03:04:12.581Z,6.00
2018-12-02T03:05:12.498Z,6.08
2018-12-02T03:06:12.407Z,6.09
2018-12-02T03:07:12.319Z,6.14
2018-12-02T03:08:12.231Z,6.08
2018-12-02T03:09:12.146Z,6.08
2018-12-02T03:10:12.073Z,6.11
2018-12-02T03:11:11.981Z,6.11
2018-12-02T03:12:11.894Z,6.09
2018-12-02T03:13:11.806Z,6.09
2018-12-02T03:14:11.720Z,6.11
2018-12-02T03:15:11.647Z,6.09
2018-12-02T03:16:11.570Z,6.08
2018-12-02T03:17:11.472Z,6.17
2018-12-02T03:18:11.382Z,6.11
2018-12-02T03:19:11.295Z,6.18
2018-12-02T03:20:11.207Z,6.12
2018-12-02T03:21:11.132Z,6.19
2018-12-02T03:22:11.045Z,6.11
2018-12-02T03:23:10.957Z,6.12
2018-12-02T03:24:10.888Z,6.21
2018-12-02T03:25:10.782Z,6.14
2018-12-02T03:26:10.721Z,6.06
2018-12-02T03:27:10.621Z,6.12
2018-12-02T03:28:10.533Z,6.19
2018-12-02T03:29:10.448Z,6.25
2018-12-02T03:30:10.359Z,6.19
2018-12-02T03:31:10.288Z,6.25
2018-12-02T03:32:10.198Z,6.18
2018-12-02T03:33:10.111Z,6.30
2018-12-02T03:34:10.021Z,6.22
2018-12-02T03:35:09.936Z,6.28
2018-12-02T03:36:09.847Z,6.19
2018-12-02T03:37:09.760Z,6.27
2018-12-02T03:38:09.688Z,6.21
2018-12-02T03:39:09.597Z,6.19
2018-12-02T03:40:09.510Z,6.22
2018-12-02T03:41:09.422Z,6.22
2018-12-02T03:42:09.347Z,6.33
2018-12-02T03:43:09.260Z,6.30
2018-12-02T03:44:09.173Z,6.38
2018-12-02T03:45:09.085Z,6.34
2018-12-02T03:46:09.584Z,6.27
2018-12-02T03:47:08.910Z,6.30
2018-12-02T03:48:08.835Z,6.33
2018-12-02T03:49:08.751Z,6.34
2018-12-02T03:50:08.661Z,6.36
2018-12-02T03:51:08.575Z,6.33
2018-12-02T03:52:08.500Z,6.30
2018-12-02T03:53:08.413Z,6.36
2018-12-02T03:54:08.326Z,6.36
2018-12-02T03:55:08.237Z,6.37
2018-12-02T03:56:08.150Z,6.28
2018-12-02T03:57:08.061Z,6.37
2018-12-02T03:58:07.986Z,6.33
2018-12-02T03:59:07.900Z,6.38
2018-12-02T04:00:07.812Z,6.40
2018-12-02T04:01:07.726Z,6.37
2018-12-02T04:02:07.638Z,6.28
2018-12-02T04:03:07.553Z,6.36
2018-12-02T04:04:07.551Z,6.46
2018-12-02T04:05:07.387Z,6.38
2018-12-02T04:06:07.302Z,6.28
2018-12-02T04:07:07.214Z,6.41
2018-12-02T04:08:07.126Z,6.30
2018-12-02T04:09:07.051Z,6.27
2018-12-02T04:10:06.964Z,6.41
2018-12-02T04:11:06.877Z,6.38
2018-12-02T04:12:06.789Z,6.43
2018-12-02T04:13:06.703Z,6.44
2018-12-02T04:14:06.631Z,6.34
2018-12-02T04:15:06.539Z,6.37
2018-12-02T04:16:06.453Z,6.40
2018-12-02T04:17:06.363Z,6.46
2018-12-02T04:18:06.279Z,6.44
2018-12-02T04:19:06.202Z,6.48
2018-12-02T04:20:06.116Z,6.41
2018-12-02T04:21:06.028Z,6.52
2018-12-02T04:22:05.940Z,6.38
2018-12-02T04:23:05.853Z,6.43
2018-12-02T04:24:05.779Z,6.49
2018-12-02T04:25:05.689Z,6.44
2018-12-02T04:26:05.609Z,6.46
2018-12-02T04:27:05.516Z,6.43
2018-12-02T04:28:05.429Z,6.48
2018-12-02T04:29:05.354Z,6.38
2018-12-02T04:30:05.268Z,6.44
2018-12-02T04:31:05.182Z,6.44
2018-12-02T04:32:05.091Z,6.46
2018-12-02T04:33:05.005Z,6.41
2018-12-02T04:34:04.930Z,6.43
2018-12-02T04:35:04.841Z,6.41
2018-12-02T04:36:04.755Z,6.25
2018-12-02T04:37:04.667Z,6.31
2018-12-02T04:38:04.580Z,6.27
2018-12-02T04:39:04.506Z,6.25
2018-12-02T04:40:04.417Z,6.18
2018-12-02T04:41:04.333Z,6.12
2018-12-02T04:42:04.243Z,6.11
2018-12-02T04:43:04.171Z,5.96
2018-12-02T04:44:04.081Z,5.99
2018-12-02T04:45:03.992Z,5.89
2018-12-02T04:46:03.905Z,6.00
2018-12-02T04:47:03.819Z,5.81
2018-12-02T04:48:03.731Z,5.82
2018-12-02T04:49:03.656Z,5.81
2018-12-02T04:50:03.568Z,5.78
2018-12-02T04:51:03.491Z,5.81
2018-12-02T04:52:03.394Z,5.76
2018-12-02T04:53:03.307Z,5.74
2018-12-02T04:54:03.232Z,5.78
2018-12-02T04:55:03.159Z,5.75
2018-12-02T04:56:03.056Z,5.61
2018-12-02T04:57:02.970Z,5.74
2018-12-02T04:58:02.886Z,5.67
2018-12-02T04:59:02.807Z,5.71
2018-12-02T05:00:02.719Z,5.67
2018-12-02T05:01:02.634Z,5.68
2018-12-02T05:02:02.558Z,5.63
2018-12-02T05:03:02.458Z,5.64
2018-12-02T05:04:02.389Z,5.76
2018-12-02T05:05:02.303Z,5.67
2018-12-02T05:06:02.209Z,5.72
2018-12-02T05:07:02.120Z,5.63
2018-12-02T05:08:02.037Z,5.75
2018-12-02T05:09:01.958Z,5.67
2018-12-02T05:10:01.872Z,5.64
2018-12-02T05:11:01.792Z,5.71
2018-12-02T05:12:01.695Z,5.67
2018-12-02T05:13:01.610Z,5.58
2018-12-02T05:14:01.521Z,5.61
2018-12-02T05:15:01.459Z,5.63
2018-12-02T05:16:01.361Z,5.63
2018-12-02T05:17:01.275Z,5.68
2018-12-02T05:18:01.186Z,5.61
2018-12-02T05:19:01.097Z,5.67
2018-12-02T05:20:01.009Z,5.71
2018-12-02T05:21:00.935Z,5.71
2018-12-02T05:22:00.847Z,5.67
2018-12-02T05:23:00.762Z,5.65
2018-12-02T05:24:00.672Z,5.76
2018-12-02T05:25:00.598Z,5.61
2018-12-02T05:26:00.499Z,5.60
2018-12-02T05:27:00.423Z,5.64
2018-12-02T05:28:00.336Z,5.58
2018-12-02T05:29:00.261Z,5.57
2018-12-02T05:30:00.160Z,5.60
2018-12-02T05:31:00.085Z,5.61
2018-12-02T05:32:00.000Z,5.61
2018-12-02T05:32:59.912Z,5.64
2018-12-02T05:33:59.823Z,5.67
2018-12-02T05:34:59.737Z,5.68
2018-12-02T05:35:59.649Z,5.72
2018-12-02T05:36:59.562Z,5.72
2018-12-02T05:37:59.487Z,5.65
2018-12-02T05:38:59.400Z,5.65
2018-12-02T05:39:59.315Z,5.82
2018-12-02T05:40:59.223Z,5.79
2018-12-02T05:41:59.138Z,5.82
2018-12-02T05:42:59.051Z,5.90
2018-12-02T05:43:58.974Z,5.83
2018-12-02T05:44:58.887Z,5.89
2018-12-02T05:45:58.805Z,5.81
2018-12-02T05:46:58.712Z,5.79
2018-12-02T05:47:58.624Z,5.85
2018-12-02T05:48:58.551Z,5.79
2018-12-02T05:49:58.463Z,5.85
2018-12-02T05:50:58.374Z,5.78
2018-12-02T05:51:58.288Z,5.82
2018-12-02T05:52:58.206Z,5.75
2018-12-02T05:53:58.114Z,5.79
2018-12-02T05:54:58.026Z,5.90
2018-12-02T05:55:57.950Z,5.79
2018-12-02T05:56:57.867Z,5.82
2018-12-02T05:57:57.788Z,5.83
2018-12-02T05:58:57.689Z,5.74
2018-12-02T05:59:57.614Z,5.76
2018-12-02T06:00:57.527Z,5.71
2018-12-02T06:01:57.443Z,5.81
2018-12-02T06:02:57.351Z,5.78
2018-12-02T06:03:57.264Z,5.79
2018-12-02T06:04:57.178Z,5.75
2018-12-02T06:05:57.089Z,5.75
2018-12-02T06:06:57.014Z,5.74
2018-12-02T06:07:56.927Z,5.75
2018-12-02T06:08:56.842Z,5.74
2018-12-02T06:09:56.752Z,5.72
2018-12-02T06:10:56.671Z,5.83
2018-12-02T06:11:56.581Z,5.83
2018-12-02T06:12:56.505Z,5.97
2018-12-02T06:13:56.415Z,6.08
2018-12-02T06:14:56.340Z,6.06
2018-12-02T06:15:56.240Z,6.04
2018-12-02T06:16:56.152Z,6.08
2018-12-02T06:17:56.078Z,6.08
2018-12-02T06:18:55.990Z,6.11
2018-12-02T06:19:55.903Z,6.04
2018-12-02T06:20:55.817Z,6.11
2018-12-02T06:21:55.731Z,6.22
2018-12-02T06:22:55.661Z,6.25
2018-12-02T06:23:55.556Z,6.25
2018-12-02T06:24:55.480Z,6.30
2018-12-02T06:25:55.401Z,6.17
2018-12-02T06:26:55.303Z,6.17
2018-12-02T06:27:55.222Z,6.22
2018-12-02T06:28:55.129Z,6.28
2018-12-02T06:29:55.055Z,6.21
2018-12-02T06:30:54.969Z,6.25
2018-12-02T06:31:54.882Z,6.25
2018-12-02T06:32:54.793Z,6.25
2018-12-02T06:33:54.709Z,6.17
2018-12-02T06:34:54.619Z,6.25
2018-12-02T06:35:54.544Z,6.25
2018-12-02T06:36:54.455Z,6.15
2018-12-02T06:37:54.369Z,6.17
2018-12-02T06:38:54.280Z,6.15
2018-12-02T06:39:54.194Z,6.17
2018-12-02T06:40:54.121Z,6.14
2018-12-02T06:41:54.030Z,6.15
2018-12-02T06:42:53.945Z,6.17
2018-12-02T06:43:53.856Z,6.14
2018-12-02T06:44:53.769Z,6.14
2018-12-02T06:45:53.681Z,6.09
2018-12-02T06:46:53.607Z,6.11
2018-12-02T06:47:53.518Z,6.03
2018-12-02T06:48:53.431Z,6.06
2018-12-02T06:49:53.344Z,6.09
2018-12-02T06:50:53.257Z,6.12
2018-12-02T06:51:53.182Z,6.21
2018-12-02T06:52:53.094Z,6.22
2018-12-02T06:53:53.020Z,6.15
2018-12-02T06:54:52.920Z,6.21
2018-12-02T06:55:52.832Z,6.25
2018-12-02T06:56:52.746Z,6.28
2018-12-02T06:57:52.670Z,6.27
2018-12-02T06:58:52.582Z,6.25
2018-12-02T06:59:52.497Z,6.27
2018-12-02T07:00:52.407Z,6.27
2018-12-02T07:01:52.322Z,6.19
2018-12-02T07:02:52.245Z,6.27
2018-12-02T07:03:52.157Z,6.33
2018-12-02T07:04:52.071Z,6.31
2018-12-02T07:05:51.982Z,6.27
2018-12-02T07:06:51.896Z,6.28
2018-12-02T07:07:51.808Z,6.37
2018-12-02T07:08:51.745Z,6.36
2018-12-02T07:09:51.647Z,6.38
2018-12-02T07:10:51.558Z,6.41
2018-12-02T07:11:51.472Z,6.40
2018-12-02T07:12:51.384Z,6.34
2018-12-02T07:13:51.311Z,6.27
2018-12-02T07:14:51.224Z,6.44
2018-12-02T07:15:51.146Z,6.33
2018-12-02T07:16:51.047Z,6.38
2018-12-02T07:17:50.959Z,6.31
2018-12-02T07:18:50.873Z,6.37
2018-12-02T07:19:50.797Z,6.36
2018-12-02T07:20:50.709Z,6.28
2018-12-02T07:21:50.622Z,6.33
2018-12-02T07:22:50.547Z,6.48
2018-12-02T07:23:50.448Z,6.44
2018-12-02T07:24:50.374Z,6.40
2018-12-02T07:25:50.285Z,6.43
2018-12-02T07:26:50.198Z,6.43
2018-12-02T07:27:50.110Z,6.41
2018-12-02T07:28:50.027Z,6.41
2018-12-02T07:29:49.949Z,6.40
2018-12-02T07:30:49.860Z,6.40
2018-12-02T07:31:49.774Z,6.36
2018-12-02T07:32:49.688Z,6.48
2018-12-02T07:33:49.600Z,6.41
2018-12-02T07:34:49.524Z,6.46
2018-12-02T07:35:49.439Z,6.44
2018-12-02T07:36:49.349Z,6.51
2018-12-02T07:37:49.261Z,6.43
2018-12-02T07:38:49.175Z,6.44
2018-12-02T07:39:49.100Z,6.49
2018-12-02T07:40:49.012Z,6.48
2018-12-02T07:41:48.925Z,6.48
2018-12-02T07:42:48.837Z,6.46
2018-12-02T07:43:48.753Z,6.52
2018-12-02T07:44:48.664Z,6.46
2018-12-02T07:45:48.588Z,6.52
2018-12-02T07:46:48.501Z,6.51
2018-12-02T07:47:48.412Z,6.54
2018-12-02T07:48:48.326Z,6.40
2018-12-02T07:49:48.250Z,6.52
2018-12-02T07:50:48.162Z,6.52
2018-12-02T07:51:48.082Z,6.55
2018-12-02T07:52:47.989Z,6.64
2018-12-02T07:53:47.901Z,6.58
2018-12-02T07:54:47.815Z,6.52
2018-12-02T07:55:47.738Z,6.54
2018-12-02T07:56:47.653Z,6.56
2018-12-02T07:57:47.563Z,6.51
2018-12-02T07:58:47.481Z,6.52
2018-12-02T07:59:47.404Z,6.56
2018-12-02T08:00:47.326Z,6.56
2018-12-02T08:01:47.228Z,6.58
2018-12-02T08:02:47.140Z,6.62
2018-12-02T08:03:47.052Z,6.61
2018-12-02T08:04:46.978Z,6.70
2018-12-02T08:05:46.889Z,6.62
2018-12-02T08:06:46.802Z,6.67
2018-12-02T08:07:46.715Z,6.67
2018-12-02T08:08:46.628Z,6.67
2018-12-02T08:09:46.553Z,6.76
2018-12-02T08:10:46.465Z,6.70
2018-12-02T08:11:46.378Z,6.73
2018-12-02T08:12:46.341Z,6.73
2018-12-02T08:13:46.213Z,6.80
2018-12-02T08:14:46.134Z,6.74
2018-12-02T08:15:46.044Z,6.80
2018-12-02T08:16:45.954Z,6.76
2018-12-02T08:17:45.880Z,6.79
2018-12-02T08:18:45.778Z,6.77
2018-12-02T08:19:45.705Z,6.79
2018-12-02T08:20:45.615Z,6.79
2018-12-02T08:21:45.529Z,6.85
2018-12-02T08:22:51.093Z,6.80
2018-12-02T08:23:45.366Z,6.87
2018-12-02T08:24:45.280Z,6.81
2018-12-02T08:25:45.192Z,6.84
2018-12-02T08:26:45.104Z,6.85
2018-12-02T08:27:45.016Z,6.92
2018-12-02T08:28:44.942Z,6.80
2018-12-02T08:29:44.857Z,6.85
2018-12-02T08:30:44.767Z,6.88
2018-12-02T08:31:44.680Z,6.91
2018-12-02T08:32:44.605Z,6.88
2018-12-02T08:33:44.517Z,6.89
2018-12-02T08:34:44.431Z,7.02
2018-12-02T08:35:44.342Z,6.97
2018-12-02T08:36:44.257Z,7.02
2018-12-02T08:37:44.180Z,7.03
2018-12-02T08:38:44.094Z,6.97
2018-12-02T08:39:44.005Z,7.03
2018-12-02T08:40:43.920Z,6.97
2018-12-02T08:41:43.830Z,6.98
2018-12-02T08:42:43.763Z,6.99
2018-12-02T08:43:43.668Z,6.92
2018-12-02T08:44:43.581Z,6.94
2018-12-02T08:45:43.493Z,6.94
2018-12-02T08:46:43.418Z,6.88
2018-12-02T08:47:43.331Z,6.91
2018-12-02T08:48:43.243Z,6.92
2018-12-02T08:49:43.157Z,6.99
2018-12-02T08:50:43.095Z,6.91
2018-12-02T08:51:42.994Z,6.94
2018-12-02T08:52:42.906Z,6.91
2018-12-02T08:53:42.822Z,6.91
2018-12-02T08:54:42.732Z,6.89
2018-12-02T08:55:42.658Z,6.99
2018-12-02T08:56:42.569Z,7.02
2018-12-02T08:57:42.483Z,6.97
2018-12-02T08:58:42.395Z,7.03
2018-12-02T08:59:42.333Z,6.97
2018-12-02T09:00:42.233Z,7.06
2018-12-02T09:01:42.146Z,6.98
2018-12-02T09:02:42.057Z,7.03
2018-12-02T09:03:41.987Z,7.02
2018-12-02T09:04:41.895Z,7.13
2018-12-02T09:05:41.811Z,7.16
2018-12-02T09:06:41.720Z,7.16
2018-12-02T09:07:41.645Z,7.23
2018-12-02T09:08:41.559Z,7.09
2018-12-02T09:09:41.471Z,7.12
2018-12-02T09:10:41.384Z,7.24
2018-12-02T09:11:41.308Z,7.15
2018-12-02T09:12:41.221Z,7.24
2018-12-02T09:13:41.134Z,7.27
2018-12-02T09:14:41.047Z,7.34
2018-12-02T09:15:40.971Z,7.32
2018-12-02T09:16:40.884Z,7.27
2018-12-02T09:17:40.799Z,7.42
2018-12-02T09:18:40.709Z,7.37
2018-12-02T09:19:40.635Z,7.42
2018-12-02T09:20:40.547Z,7.42
2018-12-02T09:21:40.460Z,7.43
2018-12-02T09:22:40.373Z,7.43
2018-12-02T09:23:40.297Z,7.48
2018-12-02T09:24:40.213Z,7.48
2018-12-02T09:25:40.126Z,7.46
2018-12-02T09:26:40.037Z,7.42
2018-12-02T09:27:39.960Z,7.55
2018-12-02T09:28:39.873Z,7.52
2018-12-02T09:29:39.794Z,7.61
2018-12-02T09:30:39.699Z,7.68
2018-12-02T09:31:39.623Z,7.57
2018-12-02T09:32:39.537Z,7.63
2018-12-02T09:33:39.449Z,7.57
2018-12-02T09:34:39.362Z,7.61
2018-12-02T09:35:39.288Z,7.64
2018-12-02T09:36:39.199Z,7.61
2018-12-02T09:37:39.112Z,7.69
2018-12-02T09:38:39.023Z,7.55
2018-12-02T09:39:38.950Z,7.69
2018-12-02T09:40:38.863Z,7.69
2018-12-02T09:41:38.788Z,7.72
2018-12-02T09:42:38.687Z,7.68
2018-12-02T09:43:38.613Z,7.64
2018-12-02T09:44:38.526Z,7.64
2018-12-02T09:45:38.450Z,7.74
2018-12-02T09:46:38.351Z,7.72
2018-12-02T09:47:38.274Z,7.64
2018-12-02T09:48:38.189Z,7.60
2018-12-02T09:49:38.100Z,7.74
2018-12-02T09:50:38.028Z,7.68
2018-12-02T09:51:37.939Z,7.71
2018-12-02T09:52:37.854Z,7.72
2018-12-02T09:53:37.764Z,7.60
2018-12-02T09:54:37.690Z,7.71
2018-12-02T09:55:37.602Z,7.77
2018-12-02T09:56:37.515Z,7.71
2018-12-02T09:57:37.428Z,7.82
2018-12-02T09:58:37.351Z,7.68
2018-12-02T09:59:37.264Z,7.82
2018-12-02T10:00:37.177Z,7.69
2018-12-02T10:01:37.102Z,7.79
2018-12-02T10:02:37.016Z,7.90
2018-12-02T10:03:36.941Z,7.89
2018-12-02T10:04:36.841Z,7.89
2018-12-02T10:05:36.776Z,7.90
2018-12-02T10:06:36.678Z,7.86
2018-12-02T10:07:36.591Z,7.92
2018-12-02T10:08:36.504Z,8.01
2018-12-02T10:09:36.442Z,7.95
2018-12-02T10:10:36.341Z,7.97
2018-12-02T10:11:36.254Z,8.01
2018-12-02T10:12:36.179Z,8.00
2018-12-02T10:13:36.091Z,8.12
2018-12-02T10:14:36.003Z,8.15
2018-12-02T10:15:35.916Z,8.07
2018-12-02T10:16:35.843Z,8.10
2018-12-02T10:17:35.756Z,8.26
2018-12-02T10:18:35.667Z,8.22
2018-12-02T10:19:35.593Z,8.20
2018-12-02T10:20:35.504Z,8.22
2018-12-02T10:21:35.417Z,8.18
2018-12-02T10:22:35.329Z,8.33
2018-12-02T10:23:35.254Z,8.29
2018-12-02T10:24:35.174Z,8.23
2018-12-02T10:25:35.093Z,8.23
2018-12-02T10:26:35.017Z,8.41
2018-12-02T10:27:34.918Z,8.40
2018-12-02T10:28:34.843Z,8.48
2018-12-02T10:29:34.755Z,8.44
2018-12-02T10:30:34.669Z,8.48
2018-12-02T10:31:34.583Z,8.44
2018-12-02T10:32:34.494Z,8.38
2018-12-02T10:33:34.418Z,8.47
2018-12-02T10:34:34.331Z,8.52
2018-12-02T10:35:34.245Z,8.53
2018-12-02T10:36:34.169Z,8.50
2018-12-02T10:37:34.080Z,8.65
2018-12-02T10:38:33.995Z,8.56
2018-12-02T10:39:33.907Z,8.44
2018-12-02T10:40:33.832Z,8.52
2018-12-02T10:41:33.744Z,8.63
2018-12-02T10:42:33.661Z,8.56
2018-12-02T10:43:33.582Z,8.59
2018-12-02T10:44:33.494Z,8.59
2018-12-02T10:45:33.407Z,8.66
2018-12-02T10:46:33.331Z,8.52
2018-12-02T10:47:33.249Z,8.62
2018-12-02T10:48:33.161Z,8.61
2018-12-02T10:49:33.082Z,8.55
2018-12-02T10:50:32.995Z,8.56
2018-12-02T10:51:32.907Z,8.66
2018-12-02T10:52:32.832Z,8.63
2018-12-02T10:53:32.746Z,8.61
2018-12-02T10:54:32.659Z,8.52
2018-12-02T10:55:32.570Z,8.68
2018-12-02T10:56:32.497Z,8.59
2018-12-02T10:57:32.421Z,8.63
2018-12-02T10:58:32.320Z,8.61
2018-12-02T10:59:32.248Z,8.59
2018-12-02T11:00:32.164Z,8.63
2018-12-02T11:01:32.074Z,8.65
2018-12-02T11:02:31.998Z,8.61
2018-12-02T11:03:31.908Z,8.50
2018-12-02T11:04:31.821Z,8.55
2018-12-02T11:05:31.747Z,8.52
2018-12-02T11:06:31.659Z,8.58
2018-12-02T11:07:31.572Z,8.52
2018-12-02T11:08:31.484Z,8.48
2018-12-02T11:09:31.409Z,8.55
2018-12-02T11:10:31.322Z,8.48
2018-12-02T11:11:31.234Z,8.59
2018-12-02T11:12:31.160Z,8.59
2018-12-02T11:13:31.073Z,8.47
2018-12-02T11:14:30.984Z,8.50
2018-12-02T11:15:30.910Z,8.62
2018-12-02T11:16:30.824Z,8.55
2018-12-02T11:17:30.738Z,8.58
2018-12-02T11:18:30.649Z,8.68
2018-12-02T11:19:30.575Z,8.65
2018-12-02T11:20:30.486Z,8.68
2018-12-02T11:21:30.410Z,8.68
2018-12-02T11:22:30.324Z,8.74
2018-12-02T11:23:30.237Z,8.74
2018-12-02T11:24:30.150Z,8.68
2018-12-02T11:25:30.074Z,8.70
2018-12-02T11:26:29.986Z,8.68
2018-12-02T11:27:29.900Z,8.74
2018-12-02T11:28:29.825Z,8.76
2018-12-02T11:29:29.736Z,8.74
2018-12-02T11:30:29.650Z,8.79
2018-12-02T11:31:29.563Z,8.77
2018-12-02T11:32:29.500Z,8.77
2018-12-02T11:33:29.400Z,8.74
2018-12-02T11:34:29.317Z,8.73
2018-12-02T11:35:29.237Z,8.71
2018-12-02T11:36:29.157Z,8.71
2018-12-02T11:37:29.063Z,8.79
2018-12-02T11:38:28.988Z,8.65
2018-12-02T11:39:28.900Z,8.79
2018-12-02T11:40:28.813Z,8.83
2018-12-02T11:41:28.740Z,8.70
2018-12-02T11:42:28.651Z,8.91
2018-12-02T11:43:28.563Z,8.89
2018-12-02T11:44:28.488Z,8.92
2018-12-02T11:45:28.402Z,8.89
2018-12-02T11:46:28.326Z,8.92
2018-12-02T11:47:28.238Z,8.83
2018-12-02T11:48:28.152Z,8.79
2018-12-02T11:49:28.064Z,8.83
2018-12-02T11:50:27.989Z,8.91
2018-12-02T11:51:27.902Z,8.94
2018-12-02T11:52:27.817Z,8.91
2018-12-02T11:53:27.739Z,8.94
2018-12-02T11:54:27.652Z,8.91
2018-12-02T11:55:27.576Z,8.87
2018-12-02T11:56:27.478Z,8.89
2018-12-02T11:57:27.411Z,8.89
2018-12-02T11:58:27.316Z,8.94
2018-12-02T11:59:27.229Z,8.83
2018-12-02T12:00:27.153Z,8.94
2018-12-02T12:01:27.081Z,8.91
2018-12-02T12:02:26.978Z,8.86
2018-12-02T12:03:26.909Z,8.86
2018-12-02T12:04:26.817Z,8.91
2018-12-02T12:05:26.728Z,8.91
2018-12-02T12:06:26.654Z,8.91
2018-12-02T12:07:26.580Z,8.86
2018-12-02T12:08:26.478Z,8.84
2018-12-02T12:09:26.410Z,8.84
2018-12-02T12:10:26.316Z,8.91
2018-12-02T12:11:26.229Z,8.87
2018-12-02T12:12:26.143Z,8.80
2018-12-02T12:13:26.066Z,8.83
2018-12-02T12:14:25.979Z,8.83
2018-12-02T12:15:25.892Z,8.81
2018-12-02T12:16:25.817Z,8.94
2018-12-02T12:17:25.730Z,8.89
2018-12-02T12:18:25.642Z,8.77
2018-12-02T12:19:25.568Z,8.86
2018-12-02T12:20:25.488Z,8.68
2018-12-02T12:21:25.392Z,8.71
2018-12-02T12:22:25.318Z,8.70
2018-12-02T12:23:25.231Z,8.63
2018-12-02T12:24:25.143Z,8.66
2018-12-02T12:25:25.071Z,8.59
2018-12-02T12:26:24.981Z,8.52
2018-12-02T12:27:24.892Z,8.52
2018-12-02T12:28:24.807Z,8.56
2018-12-02T12:29:24.732Z,8.59
2018-12-02T12:30:24.643Z,8.59
2018-12-02T12:31:24.557Z,8.53
2018-12-02T12:32:24.481Z,8.50
2018-12-02T12:33:24.394Z,8.50
2018-12-02T12:34:24.307Z,8.43
2018-12-02T12:35:24.233Z,8.43
2018-12-02T12:36:24.144Z,8.43
2018-12-02T12:37:24.057Z,8.50
2018-12-02T12:38:23.971Z,8.38
2018-12-02T12:39:23.894Z,8.33
2018-12-02T12:40:23.807Z,8.43
2018-12-02T12:41:23.721Z,8.38
2018-12-02T12:42:23.647Z,8.23
2018-12-02T12:43:23.558Z,8.40
2018-12-02T12:44:23.470Z,8.33
2018-12-02T12:45:23.395Z,8.23
2018-12-02T12:46:23.309Z,8.16
2018-12-02T12:47:23.233Z,8.26
2018-12-02T12:48:23.134Z,8.18
2018-12-02T12:49:23.059Z,8.22
2018-12-02T12:50:22.970Z,8.20
2018-12-02T12:51:22.895Z,8.18
2018-12-02T12:52:22.813Z,8.20
2018-12-02T12:53:22.734Z,8.12
2018-12-02T12:54:22.634Z,8.02
2018-12-02T12:55:22.546Z,8.15
2018-12-02T12:56:22.471Z,8.10
2018-12-02T12:57:22.384Z,8.18
2018-12-02T12:58:22.300Z,8.12
2018-12-02T12:59:22.210Z,8.15
2018-12-02T13:00:22.141Z,8.15
2018-12-02T13:01:22.047Z,8.08
2018-12-02T13:02:21.960Z,8.18
2018-12-02T13:03:21.885Z,8.23
2018-12-02T13:04:21.797Z,8.25
2018-12-02T13:05:21.713Z,8.16
2018-12-02T13:06:21.635Z,8.26
2018-12-02T13:07:21.547Z,8.20
2018-12-02T13:08:21.460Z,8.15
2018-12-02T13:09:21.377Z,8.15
2018-12-02T13:10:21.297Z,8.15
2018-12-02T13:11:21.211Z,8.16
2018-12-02T13:12:21.139Z,8.22
2018-12-02T13:13:21.895Z,8.18
2018-12-02T13:14:20.949Z,8.25
2018-12-02T13:15:20.875Z,8.19
2018-12-02T13:16:20.788Z,8.20
2018-12-02T13:17:20.698Z,8.22